Alden, IL

1:24 PM CDT on May 29, 2015 (GMT -0500)
Cornfield | | Change Station
CLOSE
Current Station
Personal Weather Station
Location: Hebron, IL
Elevation: 965 ft
Nearby Weather Stations

Elev 965 ft 42.46 °N, 88.48 °W | Updated 53 seconds ago

Mostly Cloudy
Mostly Cloudy
78.1 °F
Feels Like 80 °F
N
8.0
Wind Variable Wind from ESE
Gusts 10.0 mph

Today
High -- | Low -- °F
--% Chance of Precip.
Yesterday
High -- | Low -- °F
Precip. -- in
5:21 AM 8:22 PM
Waxing Gibbous, 85% visible
Pressure 29.95 in
Visibility 10.0 miles
Clouds Clear
Heat Index 80 °F
Dew Point 67 °F
Humidity 69%
Rainfall 0.00 in
Snow Depth Not available.
UV 1.0 out of 12
Pollen 3.30 out of 12
Air Quality Not available.
Flu Activity Sporadic
METAR KBUU 291815Z AUTO 16010G15KT 10SM CLR 25/19 A2995 RMK AO2 T02520188

More Conditions Fewer Conditions

Pressure 29.95 in
Visibility 10.0 miles
Clouds Clear
Heat Index 80 °F
Dew Point 67 °F
Humidity 69%
Rainfall 0.00 in
Snow Depth Not available.
UV 1.0 out of 12
Pollen 3.30 out of 12
Air Quality Not available.
Flu Activity Sporadic
METAR KBUU 291815Z AUTO 16010G15KT 10SM CLR 25/19 A2995 RMK AO2 T02520188

More Conditions Fewer Conditions

10-Day Weather Forecast

Almanac

Astronomy

May. 29, 2015 Rise Set
Actual Time
Civil Twilight
Nautical Twilight
Astronomical Twilight
Moon
Length of Visible Light
Length of Day
Tomorrow will be .
, % of the Moon is Illuminated

Today's Extremes

State Highs State Lows

Community

WunderPhotos

Upload Photos

1,825,321 photos uploaded!

WunderBlogs® & News

Nearby

Air Quality

  Air Quality AQ Index Pollutant
Not available.

Snow Depth

Station Depth Elevation

Earthquake Activity

City Distance Mag. Time & Date
Minimum magnitude displayed is 2.5.

Coastal Water Temperatures

Place Temperature

Stations

Nearby Weather Stations

Station Location Temp. Windchill Dew Point Humidity Wind Precip. Elev Updated Type